• Join FlightAware (Why Join?)
  • Login
  • US Flag 
11:45PM EST


 

Airport Tracker/Info


-or-


 

Live Flight TrackerFlight Track Log ✈ N54KP ✈ 07-Jun-2014 ✈ KOLV - KJKA

Flight Track Log - Related Links

Times and Time Zones

All times are in EDT time to prevent confusion due to time zone crossing. See the N54KP flight status page for this flight to view local times or setup timezone preferences in your user account.

Time Position Orientation Groundspeed Altitude Reporting Facility
EDT Latitude Longitude Course Direction KTS MPH feet Rate Location/Type
01:37PM 34.9833 -89.7833 180° South 70 81 700  Level KMEM
01:38PM 34.9667 -89.7833 180° South 77 89 1,300 660 Climbing KMEM
01:39PM 34.9458 -89.7714 155° Southeast 96 110 1,600 420 Climbing Memphis Center
01:40PM 34.9228 -89.7494 142° Southeast 99 114 2,100 420 Climbing Memphis Center
01:41PM 34.8978 -89.7317 150° Southeast 99 114 2,500 420 Climbing Memphis Center
01:42PM 34.8694 -89.7206 162° South 100 115 3,000 480 Climbing Memphis Center
01:43PM 34.8439 -89.7106 162° South 100 115 3,600 540 Climbing Memphis Center
01:44PM 34.8175 -89.7067 173° South 99 114 4,200 540 Climbing Memphis Center
01:45PM 34.7933 -89.7028 172° South 94 108 4,800 540 Climbing Memphis Center
01:46PM 34.7689 -89.6969 169° South 92 106 5,400 600 Climbing Memphis Center
01:47PM 34.7436 -89.6842 157° South 92 106 6,100 660 Climbing Memphis Center
01:48PM 34.7122 -89.6689 158° South 98 113 6,800 480 Climbing Memphis Center
01:49PM 34.6853 -89.6547 157° South 103 119 7,100 120 Climbing Memphis Center
01:50PM 34.6494 -89.6381 159° South 129 148 7,100  Level Memphis Center
01:51PM 34.6108 -89.6264 166° South 140 161 7,100  Level Memphis Center
01:52PM 34.5725 -89.6183 170° South 140 161 7,100  Level Memphis Center
01:53PM 34.5333 -89.6144 175° South 140 161 7,100  Level Memphis Center
01:54PM 34.4939 -89.6111 176° South 140 161 7,100  Level Memphis Center
01:55PM 34.4553 -89.6122 181° South 140 161 7,100  Level Memphis Center
01:56PM 34.4097 -89.6194 187° South 140 161 7,100  Level Memphis Center
01:57PM 34.3717 -89.6267 189° South 140 161 7,100  Level Memphis Center
01:58PM 34.3356 -89.6392 196° South 138 159 7,100  Level Memphis Center
01:59PM 34.2958 -89.6353 175° South 138 159 7,100  Level Memphis Center
02:00PM 34.2567 -89.6200 162° South 146 168 7,100  Level Memphis Center
02:01PM 34.2169 -89.6069 165° South 146 168 7,100  Level Memphis Center
02:02PM 34.1764 -89.5947 166° South 147 169 7,100  Level Memphis Center
02:03PM 34.1292 -89.5853 171° South 146 168 7,100  Level Memphis Center
02:04PM 34.0900 -89.5778 171° South 146 168 7,100  Level Memphis Center
02:05PM 34.0525 -89.5586 157° South 145 167 7,100  Level Memphis Center
02:06PM 34.0136 -89.5383 157° South 146 168 7,100  Level Memphis Center
02:07PM 33.9747 -89.5286 168° South 146 168 7,100  Level Memphis Center
02:09PM 33.9353 -89.5222 172° South 146 168 7,100  Level Memphis Center
02:10PM 33.8978 -89.5025 156° South 146 168 7,100  Level Memphis Center
02:11PM 33.8536 -89.4772 155° Southeast 146 168 7,100  Level Memphis Center
02:12PM 33.8153 -89.4575 157° South 146 168 7,100  Level Memphis Center
02:13PM 33.7756 -89.4375 157° South 146 168 7,100  Level Memphis Center
02:14PM 33.7372 -89.4150 154° Southeast 148 170 7,100  Level Memphis Center
02:15PM 33.6986 -89.3972 159° South 149 171 7,100  Level Memphis Center
02:16PM 33.6606 -89.3825 162° South 148 170 7,100  Level Memphis Center
02:17PM 33.6214 -89.3664 161° South 148 170 7,100  Level Memphis Center
02:18PM 33.5811 -89.3539 166° South 148 170 7,100  Level Memphis Center
02:19PM 33.5353 -89.3281 155° Southeast 148 170 7,100  Level Memphis Center
02:20PM 33.4969 -89.3075 156° South 149 171 7,100  Level Memphis Center
02:21PM 33.4592 -89.2856 154° Southeast 149 171 7,100  Level Memphis Center
02:22PM 33.4231 -89.2653 155° Southeast 149 171 7,100  Level Memphis Center
02:23PM 33.3847 -89.2442 155° Southeast 149 171 7,100  Level Memphis Center
02:24PM 33.3481 -89.2239 155° Southeast 149 171 7,100  Level Memphis Center
02:25PM 33.3103 -89.2022 154° Southeast 149 171 7,100  Level Memphis Center
02:26PM 33.2644 -89.1769 155° Southeast 149 171 7,100  Level Memphis Center
02:27PM 33.2281 -89.1494 148° Southeast 150 173 7,100  Level Memphis Center
02:28PM 33.1903 -89.1261 153° Southeast 151 174 7,100  Level Memphis Center
02:29PM 33.1508 -89.1067 158° South 151 174 7,100  Level Memphis Center
02:30PM 33.1108 -89.0858 156° South 152 175 7,100  Level Memphis Center
02:31PM 33.0731 -89.0658 156° South 152 175 7,100  Level Memphis Center
02:32PM 33.0261 -89.0419 157° South 152 175 7,100  Level Memphis Center
02:33PM 32.9872 -89.0217 156° South 152 175 7,100  Level Memphis Center
02:34PM 32.9497 -89.0028 157° South 152 175 7,100  Level Memphis Center
02:35PM 32.9119 -88.9831 156° South 152 175 7,100  Level Memphis Center
02:36PM 32.8728 -88.9631 157° South 152 175 7,100  Level Memphis Center
02:37PM 32.8367 -88.9378 150° Southeast 151 174 7,100  Level Memphis Center
02:38PM 32.7936 -88.9089 151° Southeast 151 174 7,100  Level Memphis Center
02:39PM 32.7531 -88.8922 161° South 151 174 7,100  Level Memphis Center
02:40PM 32.7139 -88.8775 162° South 151 174 7,100  Level Memphis Center
02:41PM 32.6744 -88.8653 165° South 150 173 7,100  Level Memphis Center
02:42PM 32.6339 -88.8517 164° South 149 171 7,100  Level Memphis Center
02:44PM 32.5872 -88.8283 157° South 152 175 7,100  Level Memphis Center
02:45PM 32.5494 -88.8072 155° Southeast 152 175 7,100  Level Memphis Center
02:46PM 32.5122 -88.7842 152° Southeast 152 175 7,100  Level Memphis Center
02:47PM 32.4753 -88.7594 151° Southeast 152 175 7,100  Level Memphis Center
02:48PM 32.4386 -88.7342 150° Southeast 153 176 7,100  Level Memphis Center
02:49PM 32.4017 -88.7117 153° Southeast 152 175 7,100  Level Memphis Center
02:50PM 32.3553 -88.7106 179° South 147 169 7,100  Level Memphis Center
02:51PM 32.3167 -88.7167 188° South 143 165 7,100  Level Memphis Center
02:52PM 32.2775 -88.7183 182° South 143 165 7,100  Level Memphis Center
02:53PM 32.2378 -88.7219 184° South 143 165 7,100  Level Memphis Center
02:54PM 32.1986 -88.7242 183° South 143 165 7,100  Level Memphis Center
02:55PM 32.1603 -88.7283 185° South 143 165 7,100  Level Memphis Center
02:56PM 32.1142 -88.7039 156° South 151 174 7,100  Level Memphis Center
02:57PM 32.0786 -88.6831 154° Southeast 148 170 7,100  Level Memphis Center
02:58PM 32.0403 -88.6642 157° South 148 170 7,100  Level Memphis Center
02:59PM 32.0022 -88.6444 156° South 148 170 7,100  Level Memphis Center
03:00PM 31.9658 -88.6247 155° Southeast 148 170 7,100  Level Memphis Center
03:01PM 31.9256 -88.6086 161° South 147 169 7,100  Level Memphis Center
03:02PM 31.8886 -88.5914 158° South 146 168 7,100  Level Memphis Center
03:03PM 31.8447 -88.5719 159° South 145 167 7,100  Level Memphis Center
03:04PM 31.8089 -88.5514 154° Southeast 144 166 7,100  Level Memphis Center
03:05PM 31.7733 -88.5289 152° Southeast 144 166 7,100  Level Memphis Center
03:06PM 31.7367 -88.5083 155° Southeast 144 166 7,100  Level Memphis Center
03:07PM 31.7014 -88.4881 154° Southeast 144 166 7,100  Level Memphis Center
03:08PM 31.6661 -88.4678 154° Southeast 144 166 7,100  Level Memphis Center
03:09PM 31.6303 -88.4489 156° South 143 165 7,100  Level Memphis Center
03:10PM 31.5878 -88.4264 156° South 143 165 7,100  Level Memphis Center
03:11PM 31.5514 -88.4078 156° South 142 163 7,100  Level Memphis Center
03:12PM 31.5161 -88.3897 156° South 142 163 7,100  Level Memphis Center
03:13PM 31.4817 -88.3669 151° Southeast 142 163 7,100  Level Memphis Center
03:14PM 31.4514 -88.3372 140° Southeast 142 163 7,100  Level Memphis Center
03:15PM 31.4217 -88.3075 140° Southeast 142 163 7,100  Level Memphis Center
03:16PM 31.3917 -88.2761 138° Southeast 142 163 7,100  Level Memphis Center
03:17PM 31.3583 -88.2347 133° Southeast 142 163 7,100  Level Memphis Center
03:19PM 31.3281 -88.2075 142° Southeast 142 163 7,100  Level Memphis Center
03:20PM 31.2939 -88.1850 151° Southeast 142 163 7,100  Level Memphis Center
03:21PM 31.2564 -88.1714 163° South 141 162 7,100  Level Memphis Center
03:22PM 31.2175 -88.1581 164° South 142 163 7,100  Level Memphis Center
03:23PM 31.1800 -88.1469 166° South 141 162 7,100  Level Memphis Center
03:24PM 31.1422 -88.1375 168° South 141 162 7,100  Level Memphis Center
03:25PM 31.1033 -88.1306 171° South 141 162 7,100  Level Memphis Center
03:26PM 31.0522 -88.1050 157° South 140 161 7,100  Level Houston Center
03:27PM 31.0150 -88.0881 159° South 140 161 7,100 -240 Level Houston Center
03:28PM 30.9758 -88.0731 162° South 143 165 6,700 -360 Descending Houston Center
03:29PM 30.9356 -88.0600 164° South 145 167 6,400 -360 Descending Houston Center
03:30PM 30.8958 -88.0422 159° South 147 169 6,000 -420 Descending Houston Center
03:31PM 30.8575 -88.0208 154° Southeast 148 170 5,600 -480 Descending Houston Center
03:32PM 30.8181 -87.9939 150° Southeast 156 180 5,100 -300 Descending Houston Center
03:33PM 30.7744 -87.9653 151° Southeast 155 178 5,100  Level Houston Center
03:34PM 30.7400 -87.9431 151° Southeast 148 170 5,100  Level Houston Center
03:35PM 30.7050 -87.9222 153° Southeast 145 167 5,100  Level Houston Center
03:36PM 30.6692 -87.9017 154° Southeast 145 167 5,100  Level Houston Center
03:37PM 30.6322 -87.8808 154° Southeast 145 167 5,100  Level Houston Center
03:38PM 30.5947 -87.8603 155° Southeast 145 167 5,100  Level Houston Center
03:39PM 30.5572 -87.8372 152° Southeast 147 169 5,100  Level Houston Center
03:40PM 30.5150 -87.8100 151° Southeast 147 169 5,100 -180 Level Houston Center
03:41PM 30.4789 -87.7858 150° Southeast 148 170 4,800 -600 Descending Houston Center
03:42PM 30.4411 -87.7586 148° Southeast 152 175 3,900 -1,020 Descending Houston Center
03:43PM 30.4036 -87.7319 148° Southeast 155 178 2,800 -840 Descending Houston Center
03:44PM 30.3656 -87.7039 148° Southeast 152 175 2,200 -600 Descending Houston Center